sensor_id;sensor_type;location;lat;lon;timestamp;pressure;altitude;pressure_sealevel;temperature;humidity
2711;BME280;20721;47.402;8.550;2022-12-29T00:00:30;95997;;;7.69;51.07
2711;BME280;20721;47.402;8.550;2022-12-29T00:01:29;95995;;;7.70;51.09
2711;BME280;20721;47.402;8.550;2022-12-29T00:02:29;95995;;;7.71;51.28
2711;BME280;20721;47.402;8.550;2022-12-29T00:03:29;95997;;;7.73;51.23
2711;BME280;20721;47.402;8.550;2022-12-29T00:05:29;96001;;;7.72;51.01
2711;BME280;20721;47.402;8.550;2022-12-29T00:06:29;95999;;;7.74;51.09
2711;BME280;20721;47.402;8.550;2022-12-29T00:07:29;96004;;;7.72;50.91
2711;BME280;20721;47.402;8.550;2022-12-29T00:08:39;96001;;;7.73;51.05
2711;BME280;20721;47.402;8.550;2022-12-29T00:09:29;95994;;;7.74;50.95
2711;BME280;20721;47.402;8.550;2022-12-29T00:10:29;95997;;;7.69;50.69
2711;BME280;20721;47.402;8.550;2022-12-29T00:11:29;95992;;;7.64;50.75
2711;BME280;20721;47.402;8.550;2022-12-29T00:12:39;95991;;;7.62;50.53
2711;BME280;20721;47.402;8.550;2022-12-29T00:13:39;95991;;;7.60;50.88
2711;BME280;20721;47.402;8.550;2022-12-29T00:14:38;95992;;;7.62;51.14
2711;BME280;20721;47.402;8.550;2022-12-29T00:15:38;95991;;;7.64;51.28
2711;BME280;20721;47.402;8.550;2022-12-29T00:16:29;95986;;;7.66;51.31
2711;BME280;20721;47.402;8.550;2022-12-29T00:17:29;95984;;;7.70;50.95
2711;BME280;20721;47.402;8.550;2022-12-29T00:18:29;95988;;;7.73;51.42
2711;BME280;20721;47.402;8.550;2022-12-29T00:19:39;95985;;;7.75;51.35
2711;BME280;20721;47.402;8.550;2022-12-29T00:20:38;95988;;;7.77;50.96
2711;BME280;20721;47.402;8.550;2022-12-29T00:21:39;95987;;;7.81;50.90
2711;BME280;20721;47.402;8.550;2022-12-29T00:22:39;95989;;;7.85;51.03
2711;BME280;20721;47.402;8.550;2022-12-29T00:23:38;95989;;;7.92;50.74
2711;BME280;20721;47.402;8.550;2022-12-29T00:24:38;95984;;;7.95;50.40
2711;BME280;20721;47.402;8.550;2022-12-29T00:25:38;95984;;;7.93;49.32
2711;BME280;20721;47.402;8.550;2022-12-29T00:28:39;95983;;;7.95;49.17
2711;BME280;20721;47.402;8.550;2022-12-29T00:29:39;95982;;;7.97;48.62
2711;BME280;20721;47.402;8.550;2022-12-29T00:30:38;95983;;;8.01;48.55
2711;BME280;20721;47.402;8.550;2022-12-29T00:31:39;95984;;;8.02;48.59
2711;BME280;20721;47.402;8.550;2022-12-29T00:32:39;95982;;;8.03;48.58
2711;BME280;20721;47.402;8.550;2022-12-29T00:33:39;95989;;;8.05;48.57
2711;BME280;20721;47.402;8.550;2022-12-29T00:34:39;95990;;;8.10;47.93
2711;BME280;20721;47.402;8.550;2022-12-29T00:35:31;95988;;;8.14;48.13
2711;BME280;20721;47.402;8.550;2022-12-29T00:36:36;95978;;;8.18;47.89
2711;BME280;20721;47.402;8.550;2022-12-29T00:37:41;95985;;;8.19;47.65
2711;BME280;20721;47.402;8.550;2022-12-29T00:38:39;95982;;;8.23;47.95
2711;BME280;20721;47.402;8.550;2022-12-29T00:39:39;95979;;;8.24;47.74
2711;BME280;20721;47.402;8.550;2022-12-29T00:40:39;95981;;;8.25;47.70
2711;BME280;20721;47.402;8.550;2022-12-29T00:41:39;95982;;;8.30;47.50
2711;BME280;20721;47.402;8.550;2022-12-29T00:42:39;95981;;;8.35;47.33
2711;BME280;20721;47.402;8.550;2022-12-29T00:43:40;95986;;;8.38;47.05
2711;BME280;20721;47.402;8.550;2022-12-29T00:44:29;95987;;;8.41;46.73
2711;BME280;20721;47.402;8.550;2022-12-29T00:46:29;95988;;;8.42;46.86
2711;BME280;20721;47.402;8.550;2022-12-29T00:47:29;95988;;;8.43;47.05
2711;BME280;20721;47.402;8.550;2022-12-29T00:48:39;95986;;;8.44;46.88
2711;BME280;20721;47.402;8.550;2022-12-29T00:49:30;95986;;;8.48;47.00
2711;BME280;20721;47.402;8.550;2022-12-29T00:50:29;95980;;;8.51;46.85
2711;BME280;20721;47.402;8.550;2022-12-29T00:51:29;95982;;;8.55;46.55
2711;BME280;20721;47.402;8.550;2022-12-29T00:52:29;95978;;;8.57;46.41
2711;BME280;20721;47.402;8.550;2022-12-29T00:53:29;95980;;;8.53;46.71
2711;BME280;20721;47.402;8.550;2022-12-29T00:54:29;95983;;;8.45;46.10
2711;BME280;20721;47.402;8.550;2022-12-29T00:55:29;95977;;;8.42;46.49
2711;BME280;20721;47.402;8.550;2022-12-29T00:56:29;95977;;;8.46;46.28
2711;BME280;20721;47.402;8.550;2022-12-29T00:57:29;95970;;;8.45;45.87
2711;BME280;20721;47.402;8.550;2022-12-29T00:58:29;95969;;;8.35;45.52
2711;BME280;20721;47.402;8.550;2022-12-29T00:59:29;95969;;;8.37;45.00
2711;BME280;20721;47.402;8.550;2022-12-29T01:00:29;95974;;;8.41;44.82
2711;BME280;20721;47.402;8.550;2022-12-29T01:01:29;95978;;;8.40;44.25
2711;BME280;20721;47.402;8.550;2022-12-29T01:02:29;95983;;;8.43;44.86
2711;BME280;20721;47.402;8.550;2022-12-29T01:03:29;95986;;;8.53;44.80
2711;BME280;20721;47.402;8.550;2022-12-29T01:04:29;95986;;;8.63;45.00
2711;BME280;20721;47.402;8.550;2022-12-29T01:05:29;95990;;;8.72;44.70
2711;BME280;20721;47.402;8.550;2022-12-29T01:06:29;95993;;;8.82;45.04
2711;BME280;20721;47.402;8.550;2022-12-29T01:07:29;95994;;;8.90;44.27
2711;BME280;20721;47.402;8.550;2022-12-29T01:08:29;95999;;;8.99;44.40
2711;BME280;20721;47.402;8.550;2022-12-29T01:09:39;95999;;;9.06;44.47
2711;BME280;20721;47.402;8.550;2022-12-29T01:10:29;96001;;;9.12;45.08
2711;BME280;20721;47.402;8.550;2022-12-29T01:11:29;96006;;;9.18;45.04
2711;BME280;20721;47.402;8.550;2022-12-29T01:12:39;96003;;;9.23;45.29
2711;BME280;20721;47.402;8.550;2022-12-29T01:13:29;96003;;;9.26;45.13
2711;BME280;20721;47.402;8.550;2022-12-29T01:14:30;96003;;;9.27;45.01
2711;BME280;20721;47.402;8.550;2022-12-29T01:15:29;96005;;;9.30;45.54
2711;BME280;20721;47.402;8.550;2022-12-29T01:16:29;96001;;;9.32;45.25
2711;BME280;20721;47.402;8.550;2022-12-29T01:17:29;96001;;;9.33;45.16
2711;BME280;20721;47.402;8.550;2022-12-29T01:18:29;95999;;;9.31;44.76
2711;BME280;20721;47.402;8.550;2022-12-29T01:19:29;96005;;;9.32;44.97
2711;BME280;20721;47.402;8.550;2022-12-29T01:20:29;96000;;;9.33;44.89
2711;BME280;20721;47.402;8.550;2022-12-29T01:21:29;96002;;;9.34;44.99
2711;BME280;20721;47.402;8.550;2022-12-29T01:22:29;96003;;;9.35;45.14
2711;BME280;20721;47.402;8.550;2022-12-29T01:24:29;96009;;;9.36;44.26
2711;BME280;20721;47.402;8.550;2022-12-29T01:25:29;96008;;;9.35;44.34
2711;BME280;20721;47.402;8.550;2022-12-29T01:26:29;96004;;;9.33;44.47
2711;BME280;20721;47.402;8.550;2022-12-29T01:27:29;96004;;;9.34;44.83
2711;BME280;20721;47.402;8.550;2022-12-29T01:28:29;96003;;;9.36;45.01
2711;BME280;20721;47.402;8.550;2022-12-29T01:29:29;96004;;;9.35;44.84
2711;BME280;20721;47.402;8.550;2022-12-29T01:30:29;96005;;;9.34;45.09
2711;BME280;20721;47.402;8.550;2022-12-29T01:32:29;96003;;;9.36;44.67
2711;BME280;20721;47.402;8.550;2022-12-29T01:33:30;96008;;;9.38;44.38
2711;BME280;20721;47.402;8.550;2022-12-29T01:35:29;96001;;;9.40;45.06
2711;BME280;20721;47.402;8.550;2022-12-29T01:36:29;95999;;;9.43;44.52
2711;BME280;20721;47.402;8.550;2022-12-29T01:37:29;96004;;;9.46;44.95
2711;BME280;20721;47.402;8.550;2022-12-29T01:38:29;95999;;;9.48;44.86
2711;BME280;20721;47.402;8.550;2022-12-29T01:39:29;96002;;;9.52;45.12
2711;BME280;20721;47.402;8.550;2022-12-29T01:40:29;96002;;;9.57;45.05
2711;BME280;20721;47.402;8.550;2022-12-29T01:41:29;96003;;;9.60;44.74
2711;BME280;20721;47.402;8.550;2022-12-29T01:42:29;96003;;;9.63;44.58
2711;BME280;20721;47.402;8.550;2022-12-29T01:43:38;96007;;;9.67;44.59
2711;BME280;20721;47.402;8.550;2022-12-29T01:45:29;96010;;;9.73;44.76
2711;BME280;20721;47.402;8.550;2022-12-29T01:47:34;96006;;;9.76;44.61
2711;BME280;20721;47.402;8.550;2022-12-29T01:48:29;96010;;;9.74;44.29
2711;BME280;20721;47.402;8.550;2022-12-29T01:49:29;96012;;;9.78;44.49
2711;BME280;20721;47.402;8.550;2022-12-29T01:50:31;96015;;;9.83;44.64
2711;BME280;20721;47.402;8.550;2022-12-29T01:51:31;96006;;;9.85;44.84
2711;BME280;20721;47.402;8.550;2022-12-29T01:52:29;96005;;;9.89;45.00
2711;BME280;20721;47.402;8.550;2022-12-29T01:53:30;96008;;;9.93;44.78
2711;BME280;20721;47.402;8.550;2022-12-29T01:54:30;96002;;;9.96;44.84
2711;BME280;20721;47.402;8.550;2022-12-29T01:55:29;96003;;;9.99;44.97
2711;BME280;20721;47.402;8.550;2022-12-29T01:56:29;96001;;;10.00;45.04
2711;BME280;20721;47.402;8.550;2022-12-29T01:58:30;95996;;;10.01;44.75
2711;BME280;20721;47.402;8.550;2022-12-29T01:59:30;95996;;;10.02;44.85
2711;BME280;20721;47.402;8.550;2022-12-29T02:00:29;95995;;;10.04;44.68
2711;BME280;20721;47.402;8.550;2022-12-29T02:01:29;95994;;;10.02;44.96
2711;BME280;20721;47.402;8.550;2022-12-29T02:03:31;95999;;;9.99;44.33
2711;BME280;20721;47.402;8.550;2022-12-29T02:04:29;95994;;;9.91;44.77
2711;BME280;20721;47.402;8.550;2022-12-29T02:05:33;95995;;;9.89;44.87
2711;BME280;20721;47.402;8.550;2022-12-29T02:06:31;95990;;;9.85;45.03
2711;BME280;20721;47.402;8.550;2022-12-29T02:07:29;95992;;;9.87;45.33
2711;BME280;20721;47.402;8.550;2022-12-29T02:08:29;95985;;;9.90;45.37
2711;BME280;20721;47.402;8.550;2022-12-29T02:09:29;95982;;;9.94;45.36
2711;BME280;20721;47.402;8.550;2022-12-29T02:10:30;95988;;;10.00;45.43
2711;BME280;20721;47.402;8.550;2022-12-29T02:11:29;95986;;;10.03;45.55
2711;BME280;20721;47.402;8.550;2022-12-29T02:12:29;95986;;;10.06;45.47
2711;BME280;20721;47.402;8.550;2022-12-29T02:13:29;95986;;;10.07;45.48
2711;BME280;20721;47.402;8.550;2022-12-29T02:14:29;95987;;;10.08;45.33
2711;BME280;20721;47.402;8.550;2022-12-29T02:16:30;95980;;;10.13;45.61
2711;BME280;20721;47.402;8.550;2022-12-29T02:21:41;95987;;;10.17;45.12
2711;BME280;20721;47.402;8.550;2022-12-29T02:26:33;95988;;;10.01;45.71
2711;BME280;20721;47.402;8.550;2022-12-29T02:28:37;95983;;;9.85;46.08
2711;BME280;20721;47.402;8.550;2022-12-29T02:30:49;95983;;;9.77;46.49
2711;BME280;20721;47.402;8.550;2022-12-29T02:31:31;95982;;;9.74;46.64
2711;BME280;20721;47.402;8.550;2022-12-29T02:36:46;95984;;;9.66;47.04
2711;BME280;20721;47.402;8.550;2022-12-29T02:39:34;95985;;;9.49;48.00
2711;BME280;20721;47.402;8.550;2022-12-29T02:41:33;95983;;;9.55;47.96
2711;BME280;20721;47.402;8.550;2022-12-29T02:42:33;95986;;;9.59;47.97
2711;BME280;20721;47.402;8.550;2022-12-29T02:43:33;95980;;;9.70;48.03
2711;BME280;20721;47.402;8.550;2022-12-29T02:45:31;95978;;;9.81;47.71
2711;BME280;20721;47.402;8.550;2022-12-29T02:46:34;95981;;;9.73;47.95
2711;BME280;20721;47.402;8.550;2022-12-29T02:48:32;95979;;;9.89;47.81
2711;BME280;20721;47.402;8.550;2022-12-29T02:49:31;95972;;;9.99;47.68
2711;BME280;20721;47.402;8.550;2022-12-29T02:50:32;95966;;;10.09;47.68
2711;BME280;20721;47.402;8.550;2022-12-29T02:51:30;95972;;;10.10;47.47
2711;BME280;20721;47.402;8.550;2022-12-29T02:52:31;95970;;;10.09;47.50
2711;BME280;20721;47.402;8.550;2022-12-29T02:53:39;95966;;;10.12;47.59
2711;BME280;20721;47.402;8.550;2022-12-29T02:54:39;95961;;;10.16;47.44
2711;BME280;20721;47.402;8.550;2022-12-29T02:55:29;95969;;;10.20;47.40
2711;BME280;20721;47.402;8.550;2022-12-29T02:56:29;95966;;;10.21;47.39
2711;BME280;20721;47.402;8.550;2022-12-29T02:57:31;95969;;;10.24;47.36
2711;BME280;20721;47.402;8.550;2022-12-29T02:58:29;95971;;;10.26;47.40
2711;BME280;20721;47.402;8.550;2022-12-29T02:59:29;95969;;;10.29;47.19
2711;BME280;20721;47.402;8.550;2022-12-29T03:00:29;95964;;;10.32;47.29
2711;BME280;20721;47.402;8.550;2022-12-29T03:01:45;95965;;;10.33;47.16
2711;BME280;20721;47.402;8.550;2022-12-29T03:03:35;95964;;;10.38;47.22
2711;BME280;20721;47.402;8.550;2022-12-29T03:04:39;95967;;;10.37;47.35
2711;BME280;20721;47.402;8.550;2022-12-29T03:07:32;95965;;;10.40;47.47
2711;BME280;20721;47.402;8.550;2022-12-29T03:13:47;95959;;;10.38;47.21
2711;BME280;20721;47.402;8.550;2022-12-29T03:14:43;95960;;;10.29;47.42
2711;BME280;20721;47.402;8.550;2022-12-29T03:16:34;95960;;;10.05;48.03
2711;BME280;20721;47.402;8.550;2022-12-29T03:20:31;95950;;;10.06;48.25
2711;BME280;20721;47.402;8.550;2022-12-29T03:21:40;95951;;;10.07;48.24
2711;BME280;20721;47.402;8.550;2022-12-29T03:23:29;95955;;;10.12;48.33
2711;BME280;20721;47.402;8.550;2022-12-29T03:24:30;95956;;;10.18;48.23
2711;BME280;20721;47.402;8.550;2022-12-29T03:25:31;95953;;;10.22;48.22
2711;BME280;20721;47.402;8.550;2022-12-29T03:26:29;95942;;;10.20;48.00
2711;BME280;20721;47.402;8.550;2022-12-29T03:27:31;95937;;;10.18;47.89
2711;BME280;20721;47.402;8.550;2022-12-29T03:28:30;95939;;;10.20;47.73
2711;BME280;20721;47.402;8.550;2022-12-29T03:29:30;95943;;;10.14;47.91
2711;BME280;20721;47.402;8.550;2022-12-29T03:30:29;95936;;;10.11;48.05
2711;BME280;20721;47.402;8.550;2022-12-29T03:33:29;95924;;;9.79;48.49
2711;BME280;20721;47.402;8.550;2022-12-29T03:34:29;95933;;;9.56;48.86
2711;BME280;20721;47.402;8.550;2022-12-29T03:35:30;95942;;;9.47;49.30
2711;BME280;20721;47.402;8.550;2022-12-29T03:36:32;95940;;;9.51;49.28
2711;BME280;20721;47.402;8.550;2022-12-29T03:37:31;95939;;;9.60;49.33
2711;BME280;20721;47.402;8.550;2022-12-29T03:39:29;95931;;;9.56;49.13
2711;BME280;20721;47.402;8.550;2022-12-29T03:40:29;95930;;;9.57;49.04
2711;BME280;20721;47.402;8.550;2022-12-29T03:41:30;95921;;;9.63;49.16
2711;BME280;20721;47.402;8.550;2022-12-29T03:42:32;95926;;;9.69;49.01
2711;BME280;20721;47.402;8.550;2022-12-29T03:43:29;95929;;;9.62;48.88
2711;BME280;20721;47.402;8.550;2022-12-29T03:44:31;95925;;;9.58;49.14
2711;BME280;20721;47.402;8.550;2022-12-29T03:45:29;95918;;;9.56;49.02
2711;BME280;20721;47.402;8.550;2022-12-29T03:47:29;95925;;;9.55;48.86
2711;BME280;20721;47.402;8.550;2022-12-29T03:48:29;95933;;;9.58;49.05
2711;BME280;20721;47.402;8.550;2022-12-29T03:49:29;95936;;;9.70;48.98
2711;BME280;20721;47.402;8.550;2022-12-29T03:50:29;95934;;;9.78;48.72
2711;BME280;20721;47.402;8.550;2022-12-29T03:51:29;95933;;;9.82;48.44
2711;BME280;20721;47.402;8.550;2022-12-29T03:52:29;95932;;;9.89;48.19
2711;BME280;20721;47.402;8.550;2022-12-29T03:53:29;95938;;;9.99;48.02
2711;BME280;20721;47.402;8.550;2022-12-29T03:54:29;95946;;;10.07;47.80
2711;BME280;20721;47.402;8.550;2022-12-29T03:55:29;95944;;;10.13;47.56
2711;BME280;20721;47.402;8.550;2022-12-29T03:56:29;95936;;;10.20;47.60
2711;BME280;20721;47.402;8.550;2022-12-29T03:57:29;95942;;;10.23;47.36
2711;BME280;20721;47.402;8.550;2022-12-29T03:58:29;95942;;;10.22;47.36
2711;BME280;20721;47.402;8.550;2022-12-29T03:59:29;95943;;;10.20;47.36
2711;BME280;20721;47.402;8.550;2022-12-29T04:00:29;95935;;;10.21;47.23
2711;BME280;20721;47.402;8.550;2022-12-29T04:01:29;95939;;;10.23;47.13
2711;BME280;20721;47.402;8.550;2022-12-29T04:02:29;95937;;;10.25;47.09
2711;BME280;20721;47.402;8.550;2022-12-29T04:03:29;95941;;;10.22;47.01
2711;BME280;20721;47.402;8.550;2022-12-29T04:04:29;95940;;;10.21;47.01
2711;BME280;20721;47.402;8.550;2022-12-29T04:05:31;95936;;;10.23;46.95
2711;BME280;20721;47.402;8.550;2022-12-29T04:06:29;95939;;;10.28;46.96
2711;BME280;20721;47.402;8.550;2022-12-29T04:07:29;95942;;;10.34;46.91
2711;BME280;20721;47.402;8.550;2022-12-29T04:08:29;95941;;;10.35;46.84
2711;BME280;20721;47.402;8.550;2022-12-29T04:09:31;95937;;;10.34;46.78
2711;BME280;20721;47.402;8.550;2022-12-29T04:10:29;95929;;;10.39;46.85
2711;BME280;20721;47.402;8.550;2022-12-29T04:11:33;95921;;;10.37;46.57
2711;BME280;20721;47.402;8.550;2022-12-29T04:13:29;95921;;;10.41;46.81
2711;BME280;20721;47.402;8.550;2022-12-29T04:14:29;95925;;;10.25;46.76
2711;BME280;20721;47.402;8.550;2022-12-29T04:15:29;95917;;;10.19;47.16
2711;BME280;20721;47.402;8.550;2022-12-29T04:16:29;95920;;;10.21;47.21
2711;BME280;20721;47.402;8.550;2022-12-29T04:17:29;95922;;;10.22;47.18
2711;BME280;20721;47.402;8.550;2022-12-29T04:18:29;95914;;;10.21;47.14
2711;BME280;20721;47.402;8.550;2022-12-29T04:19:31;95912;;;10.10;47.43
2711;BME280;20721;47.402;8.550;2022-12-29T04:20:39;95914;;;10.06;47.47
2711;BME280;20721;47.402;8.550;2022-12-29T04:21:29;95911;;;9.90;47.44
2711;BME280;20721;47.402;8.550;2022-12-29T04:22:29;95911;;;9.86;47.71
2711;BME280;20721;47.402;8.550;2022-12-29T04:23:30;95914;;;9.95;47.84
2711;BME280;20721;47.402;8.550;2022-12-29T04:24:29;95909;;;10.04;47.72
2711;BME280;20721;47.402;8.550;2022-12-29T04:25:30;95911;;;9.92;47.57
2711;BME280;20721;47.402;8.550;2022-12-29T04:26:29;95903;;;9.79;47.85
2711;BME280;20721;47.402;8.550;2022-12-29T04:27:29;95901;;;9.73;48.23
2711;BME280;20721;47.402;8.550;2022-12-29T04:28:29;95899;;;9.74;48.30
2711;BME280;20721;47.402;8.550;2022-12-29T04:29:29;95906;;;9.73;48.27
2711;BME280;20721;47.402;8.550;2022-12-29T04:30:29;95895;;;9.54;48.50
2711;BME280;20721;47.402;8.550;2022-12-29T04:31:29;95894;;;9.57;48.52
2711;BME280;20721;47.402;8.550;2022-12-29T04:32:29;95898;;;9.61;48.46
2711;BME280;20721;47.402;8.550;2022-12-29T04:33:29;95894;;;9.70;48.51
2711;BME280;20721;47.402;8.550;2022-12-29T04:34:29;95890;;;9.54;48.34
2711;BME280;20721;47.402;8.550;2022-12-29T04:35:29;95899;;;9.39;48.45
2711;BME280;20721;47.402;8.550;2022-12-29T04:36:30;95896;;;9.38;48.35
2711;BME280;20721;47.402;8.550;2022-12-29T04:37:29;95899;;;9.41;48.36
2711;BME280;20721;47.402;8.550;2022-12-29T04:38:29;95901;;;9.34;48.38
2711;BME280;20721;47.402;8.550;2022-12-29T04:39:29;95890;;;9.26;48.51
2711;BME280;20721;47.402;8.550;2022-12-29T04:40:29;95892;;;9.29;48.37
2711;BME280;20721;47.402;8.550;2022-12-29T04:41:29;95901;;;9.33;48.00
2711;BME280;20721;47.402;8.550;2022-12-29T04:42:29;95892;;;9.35;47.88
2711;BME280;20721;47.402;8.550;2022-12-29T04:43:29;95900;;;9.46;47.69
2711;BME280;20721;47.402;8.550;2022-12-29T04:44:29;95897;;;9.49;47.43
2711;BME280;20721;47.402;8.550;2022-12-29T04:45:29;95899;;;9.57;47.35
2711;BME280;20721;47.402;8.550;2022-12-29T04:46:29;95898;;;9.55;47.10
2711;BME280;20721;47.402;8.550;2022-12-29T04:47:29;95894;;;9.53;47.24
2711;BME280;20721;47.402;8.550;2022-12-29T04:48:29;95904;;;9.58;47.42
2711;BME280;20721;47.402;8.550;2022-12-29T04:49:29;95899;;;9.59;46.92
2711;BME280;20721;47.402;8.550;2022-12-29T04:50:29;95900;;;9.60;46.71
2711;BME280;20721;47.402;8.550;2022-12-29T04:51:29;95898;;;9.52;47.01
2711;BME280;20721;47.402;8.550;2022-12-29T04:52:29;95904;;;9.53;47.20
2711;BME280;20721;47.402;8.550;2022-12-29T04:53:29;95910;;;9.59;46.95
2711;BME280;20721;47.402;8.550;2022-12-29T04:54:29;95905;;;9.63;46.64
2711;BME280;20721;47.402;8.550;2022-12-29T04:55:29;95910;;;9.68;46.41
2711;BME280;20721;47.402;8.550;2022-12-29T04:56:32;95905;;;9.55;46.47
2711;BME280;20721;47.402;8.550;2022-12-29T04:57:29;95909;;;9.58;46.61
2711;BME280;20721;47.402;8.550;2022-12-29T04:58:29;95905;;;9.50;46.50
2711;BME280;20721;47.402;8.550;2022-12-29T04:59:29;95906;;;9.48;46.83
2711;BME280;20721;47.402;8.550;2022-12-29T05:00:29;95902;;;9.39;46.99
2711;BME280;20721;47.402;8.550;2022-12-29T05:01:30;95894;;;9.40;46.93
2711;BME280;20721;47.402;8.550;2022-12-29T05:02:30;95895;;;9.39;46.93
2711;BME280;20721;47.402;8.550;2022-12-29T05:03:29;95899;;;9.41;46.86
2711;BME280;20721;47.402;8.550;2022-12-29T05:04:29;95901;;;9.43;46.83
2711;BME280;20721;47.402;8.550;2022-12-29T05:06:29;95897;;;9.46;46.71
2711;BME280;20721;47.402;8.550;2022-12-29T05:07:29;95897;;;9.54;46.59
2711;BME280;20721;47.402;8.550;2022-12-29T05:08:29;95895;;;9.64;46.40
2711;BME280;20721;47.402;8.550;2022-12-29T05:09:29;95901;;;9.60;46.17
2711;BME280;20721;47.402;8.550;2022-12-29T05:10:29;95902;;;9.50;46.12
2711;BME280;20721;47.402;8.550;2022-12-29T05:11:29;95899;;;9.55;46.43
2711;BME280;20721;47.402;8.550;2022-12-29T05:12:30;95893;;;9.48;46.24
2711;BME280;20721;47.402;8.550;2022-12-29T05:13:29;95896;;;9.57;46.43
2711;BME280;20721;47.402;8.550;2022-12-29T05:14:29;95892;;;9.64;46.05
2711;BME280;20721;47.402;8.550;2022-12-29T05:15:29;95892;;;9.61;46.09
2711;BME280;20721;47.402;8.550;2022-12-29T05:16:30;95900;;;9.59;45.79
2711;BME280;20721;47.402;8.550;2022-12-29T05:17:29;95895;;;9.55;45.98
2711;BME280;20721;47.402;8.550;2022-12-29T05:18:29;95893;;;9.51;45.91
2711;BME280;20721;47.402;8.550;2022-12-29T05:19:29;95898;;;9.52;45.79
2711;BME280;20721;47.402;8.550;2022-12-29T05:20:29;95908;;;9.59;45.97
2711;BME280;20721;47.402;8.550;2022-12-29T05:21:29;95900;;;9.68;45.97
2711;BME280;20721;47.402;8.550;2022-12-29T05:22:29;95896;;;9.74;45.92
2711;BME280;20721;47.402;8.550;2022-12-29T05:24:29;95899;;;9.77;45.58
2711;BME280;20721;47.402;8.550;2022-12-29T05:25:29;95895;;;9.83;45.68
2711;BME280;20721;47.402;8.550;2022-12-29T05:26:29;95901;;;9.77;45.72
2711;BME280;20721;47.402;8.550;2022-12-29T05:27:29;95902;;;9.74;46.01
2711;BME280;20721;47.402;8.550;2022-12-29T05:28:29;95907;;;9.70;46.10
2711;BME280;20721;47.402;8.550;2022-12-29T05:29:29;95899;;;9.74;46.02
2711;BME280;20721;47.402;8.550;2022-12-29T05:30:29;95903;;;9.81;46.04
2711;BME280;20721;47.402;8.550;2022-12-29T05:31:29;95905;;;9.84;46.07
2711;BME280;20721;47.402;8.550;2022-12-29T05:32:29;95900;;;9.79;46.06
2711;BME280;20721;47.402;8.550;2022-12-29T05:33:32;95898;;;9.84;46.30
2711;BME280;20721;47.402;8.550;2022-12-29T05:34:29;95904;;;9.79;46.17
2711;BME280;20721;47.402;8.550;2022-12-29T05:35:30;95910;;;9.81;46.06
2711;BME280;20721;47.402;8.550;2022-12-29T05:36:37;95910;;;9.79;45.88
2711;BME280;20721;47.402;8.550;2022-12-29T05:37:29;95904;;;9.72;46.00
2711;BME280;20721;47.402;8.550;2022-12-29T05:38:29;95906;;;9.66;46.17
2711;BME280;20721;47.402;8.550;2022-12-29T05:39:29;95901;;;9.70;46.34
2711;BME280;20721;47.402;8.550;2022-12-29T05:40:29;95897;;;9.75;46.36
2711;BME280;20721;47.402;8.550;2022-12-29T05:41:29;95902;;;9.74;46.06
2711;BME280;20721;47.402;8.550;2022-12-29T05:42:29;95906;;;9.79;46.22
2711;BME280;20721;47.402;8.550;2022-12-29T05:43:29;95906;;;9.78;45.96
2711;BME280;20721;47.402;8.550;2022-12-29T05:44:29;95910;;;9.77;46.20
2711;BME280;20721;47.402;8.550;2022-12-29T05:45:29;95910;;;9.71;46.38
2711;BME280;20721;47.402;8.550;2022-12-29T05:46:30;95915;;;9.72;46.21
2711;BME280;20721;47.402;8.550;2022-12-29T05:47:29;95911;;;9.73;46.16
2711;BME280;20721;47.402;8.550;2022-12-29T05:48:37;95909;;;9.74;45.96
2711;BME280;20721;47.402;8.550;2022-12-29T05:49:29;95912;;;9.77;46.01
2711;BME280;20721;47.402;8.550;2022-12-29T05:50:29;95909;;;9.81;45.95
2711;BME280;20721;47.402;8.550;2022-12-29T05:51:29;95914;;;9.73;46.08
2711;BME280;20721;47.402;8.550;2022-12-29T05:53:29;95908;;;9.52;45.80
2711;BME280;20721;47.402;8.550;2022-12-29T05:54:29;95912;;;9.46;46.52
2711;BME280;20721;47.402;8.550;2022-12-29T05:55:29;95920;;;9.42;46.71
2711;BME280;20721;47.402;8.550;2022-12-29T05:56:29;95918;;;9.45;46.80
2711;BME280;20721;47.402;8.550;2022-12-29T05:57:29;95909;;;9.47;46.69
2711;BME280;20721;47.402;8.550;2022-12-29T05:58:30;95923;;;9.54;46.58
2711;BME280;20721;47.402;8.550;2022-12-29T05:59:29;95921;;;9.60;46.44
2711;BME280;20721;47.402;8.550;2022-12-29T06:00:29;95927;;;9.61;46.57
2711;BME280;20721;47.402;8.550;2022-12-29T06:01:30;95926;;;9.63;46.71
2711;BME280;20721;47.402;8.550;2022-12-29T06:02:30;95930;;;9.72;46.62
2711;BME280;20721;47.402;8.550;2022-12-29T06:03:30;95927;;;9.79;46.51
2711;BME280;20721;47.402;8.550;2022-12-29T06:04:30;95925;;;9.83;46.44
2711;BME280;20721;47.402;8.550;2022-12-29T06:05:29;95919;;;9.76;46.53
2711;BME280;20721;47.402;8.550;2022-12-29T06:06:30;95930;;;9.85;46.62
2711;BME280;20721;47.402;8.550;2022-12-29T06:07:29;95919;;;9.79;46.68
2711;BME280;20721;47.402;8.550;2022-12-29T06:08:29;95922;;;9.80;46.81
2711;BME280;20721;47.402;8.550;2022-12-29T06:09:29;95916;;;9.82;46.93
2711;BME280;20721;47.402;8.550;2022-12-29T06:10:32;95920;;;9.86;46.72
2711;BME280;20721;47.402;8.550;2022-12-29T06:12:29;95918;;;9.84;46.77
2711;BME280;20721;47.402;8.550;2022-12-29T06:13:29;95917;;;9.79;46.79
2711;BME280;20721;47.402;8.550;2022-12-29T06:14:29;95907;;;9.82;46.74
2711;BME280;20721;47.402;8.550;2022-12-29T06:15:29;95922;;;9.75;47.09
2711;BME280;20721;47.402;8.550;2022-12-29T06:16:30;95920;;;9.81;47.23
2711;BME280;20721;47.402;8.550;2022-12-29T06:17:30;95924;;;9.85;47.20
2711;BME280;20721;47.402;8.550;2022-12-29T06:18:29;95924;;;9.89;47.30
2711;BME280;20721;47.402;8.550;2022-12-29T06:19:29;95926;;;9.99;47.30
2711;BME280;20721;47.402;8.550;2022-12-29T06:20:29;95927;;;10.05;47.18
2711;BME280;20721;47.402;8.550;2022-12-29T06:21:29;95931;;;10.12;47.11
2711;BME280;20721;47.402;8.550;2022-12-29T06:22:29;95929;;;10.19;46.75
2711;BME280;20721;47.402;8.550;2022-12-29T06:23:30;95934;;;10.33;46.71
2711;BME280;20721;47.402;8.550;2022-12-29T06:24:29;95940;;;10.37;46.56
2711;BME280;20721;47.402;8.550;2022-12-29T06:25:32;95939;;;10.44;46.27
2711;BME280;20721;47.402;8.550;2022-12-29T06:26:30;95935;;;10.33;46.31
2711;BME280;20721;47.402;8.550;2022-12-29T06:27:29;95938;;;10.11;47.04
2711;BME280;20721;47.402;8.550;2022-12-29T06:28:29;95945;;;10.12;47.32
2711;BME280;20721;47.402;8.550;2022-12-29T06:29:29;95942;;;10.04;47.62
2711;BME280;20721;47.402;8.550;2022-12-29T06:30:30;95934;;;10.05;47.72
2711;BME280;20721;47.402;8.550;2022-12-29T06:31:30;95933;;;10.11;47.71
2711;BME280;20721;47.402;8.550;2022-12-29T06:32:29;95929;;;10.19;47.51